< < Back
Terminal Aerodrome Forecast


Current Version              Previous Versions:   1  2  3  4  5  6  7  8  9  

Terminal Aerodrome Forecast

829
FTUS42 KGSP 301302 AAA
TAFAVL
TAF AMD
KAVL 301302Z 3013/3112 35006KT 5SM BR BKN003 BKN007
      TEMPO 3013/3014 P6SM NSW SCT007
     FM301400 33006KT P6SM VCSH BKN035
     FM301800 33004KT P6SM VCSH BKN060 PROB30 3022/3024 4SM TSRA
      BKN040CB
     FM310100 35008KT P6SM BKN120=

Latest METAR

883
SAUS70 KWBC 301600 RRF
MTRAVL
METAR KAVL 301554Z 33007G16KT 300V360 10SM FEW026 SCT075 29/21 A3010 RMK
AO2 SLP160 T02940206


USA.gov is the U.S. government's official web portal to all federal, state and local government web resources and services.